Weather at Đảo Trường Sa (Spratly Island) Airport

Public forecast

Using degrees Celsius for public forecast. Weather courtesy of forecast.io.

Closest aviation weather report (METAR) to Đảo Trường Sa (Spratly Island) Airport

Closest report is Kudat Airport, 310.2 nm (574.4 km) ESE.

2024/06/18 20:00 (retrieved 49 minutes ago)

WBKT 182000Z AUTO 25008KT 210V300 //// // ////// 27/24 Q1009

Closest aviation forecast (TAF) to Đảo Trường Sa (Spratly Island) Airport

Closest forecast is Can Tho International Airport, 377.8 nm (699.7 km) WNW.

2024/06/18 18:00 (retrieved 3 hours ago)

TAF VVCT 181700Z 1818/1918 VRB03KT 9999 SCT015 SCT050 BECMG 1905/1906 26010KT